Time;durP1;ratioP1;P1;durP2;ratioP2;P2;SDS_P1;SDS_P2;PMS_P1;PMS_P2;Temp;Humidity;BMP_temperature;BMP_pressure;BME280_temperature;BME280_humidity;BME280_pressure;Samples;Min_cycle;Max_cycle;Signal;HPM_P1;HPM_P2
2021/07/07 00:00:07;;;;;;;5.20;4.70;;;18.60;98.70;;;;;;4993986;28;20183;-59
2021/07/07 00:02:33;;;;;;;4.50;4.20;;;18.60;98.80;;;;;;4993880;28;20190;-59
2021/07/07 00:04:58;;;;;;;4.83;4.43;;;18.50;98.80;;;;;;4993002;28;20399;-59
2021/07/07 00:07:24;;;;;;;5.03;4.63;;;18.50;98.90;;;;;;4996974;28;20268;-59
2021/07/07 00:09:50;;;;;;;4.17;3.90;;;18.50;99.10;;;;;;4993174;28;20184;-59
2021/07/07 00:12:16;;;;;;;3.93;3.73;;;18.50;98.90;;;;;;4993825;28;20575;-59
2021/07/07 00:14:41;;;;;;;4.93;4.30;;;18.40;98.90;;;;;;4993045;28;20551;-59
2021/07/07 00:17:07;;;;;;;5.60;5.10;;;18.40;98.80;;;;;;4993351;28;20588;-59
2021/07/07 00:19:33;;;;;;;5.20;4.70;;;18.40;98.70;;;;;;4993480;28;20582;-58
2021/07/07 00:21:59;;;;;;;6.10;4.50;;;18.20;98.90;;;;;;4993034;28;20608;-59
2021/07/07 00:24:25;;;;;;;5.40;4.90;;;18.20;99.50;;;;;;4976058;28;20611;-59
2021/07/07 00:26:51;;;;;;;6.27;4.40;;;18.10;99.80;;;;;;4992901;28;20498;-59
2021/07/07 00:29:17;;;;;;;6.17;5.67;;;18.10;99.90;;;;;;4993472;28;20850;-58
2021/07/07 00:31:43;;;;;;;5.80;5.30;;;18.20;99.80;;;;;;5008556;28;20217;-58
2021/07/07 00:34:09;;;;;;;14.10;5.23;;;18.20;99.80;;;;;;5013009;28;20434;-58
2021/07/07 00:36:34;;;;;;;6.40;5.50;;;18.10;99.60;;;;;;5012922;28;20717;-58
2021/07/07 00:39:00;;;;;;;8.23;4.90;;;18.10;99.50;;;;;;5010435;28;20633;-58
2021/07/07 00:41:26;;;;;;;5.90;5.50;;;18.10;99.60;;;;;;5013083;28;20258;-58
2021/07/07 00:43:52;;;;;;;5.27;4.83;;;18.20;99.90;;;;;;5012222;28;20270;-58
2021/07/07 00:46:17;;;;;;;6.30;5.57;;;18.20;99.90;;;;;;5012930;28;20317;-58
2021/07/07 00:48:45;;;;;;;5.30;4.90;;;18.20;99.70;;;;;;5009009;28;20202;-59
2021/07/07 00:51:13;;;;;;;6.43;5.10;;;18.20;99.60;;;;;;4993500;28;20214;-58
2021/07/07 00:53:39;;;;;;;5.47;5.00;;;18.20;99.60;;;;;;4993017;28;20801;-58
2021/07/07 00:56:05;;;;;;;5.97;5.47;;;18.10;99.40;;;;;;4992635;28;20482;-58
2021/07/07 00:58:32;;;;;;;5.53;5.13;;;18.10;99.60;;;;;;4993074;28;20403;-58
2021/07/07 01:00:58;;;;;;;6.30;5.37;;;18.10;99.80;;;;;;4992289;28;20427;-58
2021/07/07 01:03:24;;;;;;;5.60;4.97;;;18.00;99.90;;;;;;4993206;28;20399;-59
2021/07/07 01:05:50;;;;;;;5.57;5.07;;;18.10;99.90;;;;;;4992619;28;20950;-59
2021/07/07 01:08:16;;;;;;;5.63;5.20;;;18.10;99.90;;;;;;4993269;28;20258;-58
2021/07/07 01:10:42;;;;;;;9.70;5.13;;;18.10;99.90;;;;;;4992450;28;20207;-59
2021/07/07 01:13:08;;;;;;;6.17;5.53;;;18.20;99.90;;;;;;4993107;28;20447;-59
2021/07/07 01:15:36;;;;;;;6.57;5.90;;;18.10;99.90;;;;;;4992743;28;20199;-58
2021/07/07 01:18:02;;;;;;;5.37;4.97;;;18.10;99.90;;;;;;4992398;28;20457;-58
2021/07/07 01:20:28;;;;;;;5.17;4.87;;;18.10;99.90;;;;;;4992979;28;20905;-58
2021/07/07 01:22:58;;;;;;;5.23;4.77;;;18.10;99.90;;;;;;4992160;28;20430;-58
2021/07/07 01:25:24;;;;;;;5.63;5.17;;;18.10;99.90;;;;;;4992908;28;20180;-58
2021/07/07 01:27:50;;;;;;;7.53;5.10;;;18.10;99.90;;;;;;4992608;28;20406;-59
2021/07/07 01:30:19;;;;;;;6.50;5.80;;;18.10;99.90;;;;;;4994041;28;20438;-59
2021/07/07 01:32:45;;;;;;;5.10;4.70;;;18.00;99.90;;;;;;4996376;28;20418;-59
2021/07/07 01:35:12;;;;;;;5.30;4.87;;;18.00;99.90;;;;;;4996290;28;20461;-59
2021/07/07 01:37:38;;;;;;;4.80;4.40;;;18.00;99.90;;;;;;4996278;28;20447;-58
2021/07/07 01:40:05;;;;;;;5.80;5.30;;;18.00;99.90;;;;;;4996008;28;20494;-58
2021/07/07 01:42:31;;;;;;;4.87;4.47;;;18.00;99.90;;;;;;4996169;28;20406;-58
2021/07/07 01:44:56;;;;;;;5.30;4.80;;;18.00;99.90;;;;;;4995927;28;20410;-58
2021/07/07 01:47:23;;;;;;;5.10;4.70;;;17.90;99.90;;;;;;4996405;28;20453;-58
2021/07/07 01:49:49;;;;;;;5.67;5.27;;;17.90;99.90;;;;;;4995477;28;20171;-58
2021/07/07 01:52:15;;;;;;;5.97;5.47;;;17.90;99.90;;;;;;4995969;28;20415;-58
2021/07/07 01:54:41;;;;;;;6.33;5.70;;;17.90;99.90;;;;;;4996317;28;20176;-58
2021/07/07 01:57:07;;;;;;;5.73;5.30;;;17.90;99.90;;;;;;4995475;28;20228;-59
2021/07/07 01:59:33;;;;;;;9.00;6.37;;;17.90;99.90;;;;;;4996085;28;20414;-58
2021/07/07 02:01:58;;;;;;;6.17;5.57;;;17.80;99.90;;;;;;4995554;28;20187;-59
2021/07/07 02:04:24;;;;;;;6.00;5.40;;;17.80;99.90;;;;;;4996096;28;20769;-59
2021/07/07 02:06:50;;;;;;;6.27;5.00;;;17.80;99.90;;;;;;4995258;28;20214;-59
2021/07/07 02:09:19;;;;;;;5.70;5.30;;;17.80;99.90;;;;;;4995988;28;20172;-58
2021/07/07 02:11:46;;;;;;;5.80;5.30;;;17.70;99.90;;;;;;4995199;28;20407;-59
2021/07/07 02:14:11;;;;;;;8.63;6.20;;;17.70;99.90;;;;;;4976472;28;20412;-58
2021/07/07 02:16:37;;;;;;;5.87;5.30;;;17.70;99.90;;;;;;4976072;28;20455;-58
2021/07/07 02:19:03;;;;;;;6.50;6.00;;;17.70;99.90;;;;;;4978162;28;20689;-59
2021/07/07 02:21:29;;;;;;;6.37;5.87;;;17.70;99.90;;;;;;4995824;28;20180;-58
2021/07/07 02:23:56;;;;;;;6.80;6.20;;;17.70;99.90;;;;;;4977861;28;20203;-58
2021/07/07 02:26:21;;;;;;;9.77;6.77;;;17.70;99.90;;;;;;4995307;28;20176;-58
2021/07/07 02:28:47;;;;;;;6.80;6.10;;;17.70;99.90;;;;;;4995393;28;20415;-59
2021/07/07 02:31:13;;;;;;;5.60;5.27;;;17.70;99.90;;;;;;4995674;28;20611;-59
2021/07/07 02:33:38;;;;;;;6.50;5.93;;;17.70;99.90;;;;;;4995622;28;20188;-59
2021/07/07 02:36:05;;;;;;;8.10;5.70;;;17.60;99.90;;;;;;4994919;28;20511;-58
2021/07/07 02:38:31;;;;;;;7.20;6.50;;;17.60;99.90;;;;;;4994254;28;20183;-58
2021/07/07 02:40:57;;;;;;;6.00;5.53;;;17.60;99.90;;;;;;4994239;28;20966;-59
2021/07/07 02:43:24;;;;;;;6.73;6.23;;;17.60;99.90;;;;;;4995391;28;20546;-58
2021/07/07 02:45:50;;;;;;;11.13;6.30;;;17.60;99.90;;;;;;4994734;28;20186;-59
2021/07/07 02:48:17;;;;;;;7.07;5.80;;;17.60;99.90;;;;;;4995318;28;20427;-58
2021/07/07 02:50:44;;;;;;;9.00;5.30;;;17.60;99.90;;;;;;4995254;28;20414;-58
2021/07/07 02:53:12;;;;;;;6.73;5.20;;;17.60;99.90;;;;;;4994633;28;20478;-58
2021/07/07 02:55:38;;;;;;;9.10;5.13;;;17.50;99.90;;;;;;4994774;28;20454;-58
2021/07/07 02:58:05;;;;;;;7.50;6.37;;;17.50;99.90;;;;;;4994473;28;20411;-59
2021/07/07 03:00:36;;;;;;;6.60;5.87;;;17.60;99.90;;;;;;4995208;28;20458;-58
2021/07/07 03:03:08;;;;;;;5.60;5.30;;;17.60;99.90;;;;;;4994499;28;20859;-59
2021/07/07 03:05:39;;;;;;;6.40;5.80;;;17.60;99.90;;;;;;4994921;28;20411;-58
2021/07/07 03:08:05;;;;;;;6.13;5.60;;;17.60;99.90;;;;;;4994416;28;20404;-58
2021/07/07 03:10:31;;;;;;;8.43;5.90;;;17.60;99.90;;;;;;4978196;28;20422;-59
2021/07/07 03:12:57;;;;;;;8.20;6.33;;;17.60;99.90;;;;;;4994190;28;20413;-59
2021/07/07 03:15:23;;;;;;;5.10;4.80;;;17.60;99.90;;;;;;4994707;28;20203;-59
2021/07/07 03:17:50;;;;;;;5.00;4.80;;;17.60;99.90;;;;;;4993902;28;20965;-59
2021/07/07 03:20:16;;;;;;;5.77;5.27;;;17.60;99.90;;;;;;4994674;28;20402;-59
2021/07/07 03:22:42;;;;;;;7.53;5.50;;;17.60;99.90;;;;;;4977268;28;20395;-59
2021/07/07 03:25:08;;;;;;;6.30;5.80;;;17.70;99.90;;;;;;4993737;28;20812;-59
2021/07/07 03:27:34;;;;;;;6.47;5.30;;;17.70;99.90;;;;;;4994187;28;20481;-58
2021/07/07 03:30:01;;;;;;;6.47;5.83;;;17.80;99.90;;;;;;4993628;28;20986;-59
2021/07/07 03:32:27;;;;;;;7.70;5.40;;;17.80;99.90;;;;;;4977162;28;20399;-58
2021/07/07 03:34:52;;;;;;;5.50;5.00;;;17.70;99.90;;;;;;4993833;28;20437;-59
2021/07/07 03:37:18;;;;;;;5.57;5.10;;;17.80;99.90;;;;;;4994776;28;20411;-58
2021/07/07 03:39:44;;;;;;;6.53;5.30;;;17.70;99.90;;;;;;4994094;28;20180;-59
2021/07/07 03:42:09;;;;;;;5.70;5.37;;;17.80;99.90;;;;;;4993714;28;20215;-58
2021/07/07 03:44:35;;;;;;;6.17;5.63;;;17.80;99.90;;;;;;4994099;28;20175;-58
2021/07/07 03:47:01;;;;;;;5.67;5.20;;;17.80;99.90;;;;;;4993392;28;20234;-59
2021/07/07 03:49:27;;;;;;;6.60;6.07;;;17.80;99.90;;;;;;4994245;28;20575;-59
2021/07/07 03:51:52;;;;;;;5.83;5.33;;;17.80;99.90;;;;;;4993526;28;20646;-59
2021/07/07 03:54:18;;;;;;;7.30;6.90;;;17.70;99.90;;;;;;4993725;28;20234;-59
2021/07/07 03:56:44;;;;;;;5.83;4.80;;;17.70;99.90;;;;;;5001047;28;20678;-58
2021/07/07 03:59:09;;;;;;;9.00;8.40;;;17.70;99.90;;;;;;5012960;28;20745;-59
2021/07/07 04:01:35;;;;;;;5.73;5.10;;;17.70;99.90;;;;;;5013498;28;20175;-58
2021/07/07 04:04:01;;;;;;;7.40;6.90;;;17.80;99.90;;;;;;5012961;28;20202;-59
2021/07/07 04:06:26;;;;;;;5.60;5.20;;;17.80;99.90;;;;;;5013154;28;20175;-58
2021/07/07 04:08:52;;;;;;;6.73;6.03;;;17.70;99.90;;;;;;5009125;28;20538;-59
2021/07/07 04:11:18;;;;;;;6.53;4.90;;;17.80;99.90;;;;;;4993830;28;20191;-59
2021/07/07 04:13:43;;;;;;;4.90;4.50;;;17.80;99.90;;;;;;4987345;28;20183;-59
2021/07/07 04:16:09;;;;;;;9.77;9.17;;;17.80;99.90;;;;;;5005013;28;20664;-59
2021/07/07 04:18:35;;;;;;;7.17;5.60;;;17.80;99.90;;;;;;4993828;28;20186;-58
2021/07/07 04:21:00;;;;;;;6.00;4.70;;;17.80;99.90;;;;;;5003756;28;20232;-59
2021/07/07 04:23:26;;;;;;;9.97;5.27;;;17.80;99.90;;;;;;4995781;28;20176;-59
2021/07/07 04:25:52;;;;;;;6.33;5.37;;;17.80;99.90;;;;;;5012350;28;20186;-59
2021/07/07 04:28:17;;;;;;;7.57;5.87;;;17.80;99.90;;;;;;5013185;28;20199;-59
2021/07/07 04:30:43;;;;;;;6.90;5.73;;;17.90;99.90;;;;;;4994101;28;20254;-59
2021/07/07 04:33:09;;;;;;;6.13;4.97;;;17.90;99.90;;;;;;4992926;28;20226;-59
2021/07/07 04:35:34;;;;;;;5.50;4.60;;;17.90;99.90;;;;;;4993318;28;20208;-59
2021/07/07 04:38:00;;;;;;;5.27;4.60;;;17.90;99.90;;;;;;4992798;28;20266;-59
2021/07/07 04:40:26;;;;;;;4.73;4.33;;;18.00;99.90;;;;;;4993484;28;20230;-58
2021/07/07 04:42:53;;;;;;;7.03;5.23;;;18.00;99.90;;;;;;4992975;28;20180;-58
2021/07/07 04:45:19;;;;;;;5.50;5.10;;;18.10;99.90;;;;;;4998344;28;20422;-58
2021/07/07 04:47:45;;;;;;;6.13;5.63;;;18.10;99.90;;;;;;5002642;28;20765;-58
2021/07/07 04:50:14;;;;;;;8.50;8.00;;;18.10;99.90;;;;;;4992603;28;20489;-58
2021/07/07 04:52:40;;;;;;;4.33;3.77;;;18.20;99.90;;;;;;4976279;28;20412;-58
2021/07/07 04:55:08;;;;;;;8.90;8.30;;;18.20;99.90;;;;;;4973088;28;20404;-58
2021/07/07 04:57:41;;;;;;;6.57;5.40;;;18.20;99.90;;;;;;4973782;28;20559;-58
2021/07/07 05:00:14;;;;;;;5.50;4.90;;;18.30;99.90;;;;;;4973514;28;20396;-59
2021/07/07 05:02:42;;;;;;;6.03;5.53;;;18.30;99.90;;;;;;4973738;28;20415;-59
2021/07/07 05:05:10;;;;;;;6.20;5.60;;;18.40;99.90;;;;;;4994438;28;20459;-59
2021/07/07 05:07:35;;;;;;;7.40;4.70;;;18.40;99.90;;;;;;4996775;28;20926;-59
2021/07/07 05:10:04;;;;;;;5.80;5.40;;;18.40;99.90;;;;;;4996502;28;20421;-59
2021/07/07 05:12:30;;;;;;;7.83;4.60;;;18.50;99.90;;;;;;4995703;28;20215;-63
2021/07/07 05:14:56;;;;;;;9.23;5.73;;;18.50;99.90;;;;;;4996183;28;20837;-64
2021/07/07 05:17:24;;;;;;;4.10;3.87;;;18.50;99.90;;;;;;4974797;28;20511;-63
2021/07/07 05:19:50;;;;;;;4.43;3.63;;;18.60;99.90;;;;;;4993033;28;20263;-63
2021/07/07 05:22:16;;;;;;;4.30;4.00;;;18.60;99.90;;;;;;4995387;28;20775;-63
2021/07/07 05:24:42;;;;;;;5.30;4.87;;;18.70;99.90;;;;;;4996886;28;20418;-63
2021/07/07 05:27:08;;;;;;;5.83;4.00;;;18.70;99.90;;;;;;4996426;28;20426;-63
2021/07/07 05:29:33;;;;;;;5.90;5.40;;;18.80;99.90;;;;;;4996835;28;20190;-63
2021/07/07 05:31:59;;;;;;;9.23;7.43;;;18.90;99.90;;;;;;4995680;28;20172;-64
2021/07/07 05:34:25;;;;;;;6.73;4.80;;;18.90;99.90;;;;;;4995473;28;20542;-62
2021/07/07 05:36:51;;;;;;;8.40;7.57;;;19.00;99.90;;;;;;4996554;28;20611;-62
2021/07/07 05:39:17;;;;;;;8.10;7.50;;;19.10;99.90;;;;;;4996007;28;20461;-62
2021/07/07 05:41:43;;;;;;;6.00;5.23;;;19.30;99.90;;;;;;4996519;28;20403;-62
2021/07/07 05:44:08;;;;;;;9.30;6.83;;;19.50;99.90;;;;;;4995489;28;20179;-62
2021/07/07 05:46:34;;;;;;;6.30;5.77;;;19.70;99.90;;;;;;4996153;28;20592;-62
2021/07/07 05:49:00;;;;;;;4.70;4.30;;;19.90;99.90;;;;;;4995470;28;20187;-62
2021/07/07 05:51:26;;;;;;;6.70;5.10;;;20.00;99.90;;;;;;4996380;28;20230;-60
2021/07/07 05:53:51;;;;;;;6.20;4.70;;;20.20;99.90;;;;;;4995822;28;20242;-60
2021/07/07 05:56:17;;;;;;;10.30;8.20;;;20.40;99.90;;;;;;4994912;28;20583;-62
2021/07/07 05:58:45;;;;;;;5.67;4.37;;;20.50;99.90;;;;;;4995985;28;20271;-61
2021/07/07 06:01:11;;;;;;;5.00;4.60;;;20.50;99.90;;;;;;4972813;28;20189;-61
2021/07/07 06:03:36;;;;;;;5.30;4.90;;;20.50;99.30;;;;;;4991675;28;20455;-61
2021/07/07 06:06:02;;;;;;;5.40;4.97;;;20.40;99.20;;;;;;4995054;28;20190;-62
2021/07/07 06:08:28;;;;;;;4.00;3.43;;;20.40;99.00;;;;;;4995973;28;20206;-61
2021/07/07 06:10:53;;;;;;;8.53;7.93;;;20.40;99.00;;;;;;4996008;28;20199;-63
2021/07/07 06:13:19;;;;;;;5.87;4.70;;;20.40;99.90;;;;;;4995371;28;20183;-63
2021/07/07 06:15:45;;;;;;;69.40;14.07;;;20.40;99.80;;;;;;4994434;28;20203;-63
2021/07/07 06:18:11;;;;;;;4.70;4.30;;;20.50;99.90;;;;;;4994989;28;20191;-63
2021/07/07 06:20:36;;;;;;;6.53;6.13;;;20.60;99.50;;;;;;4978467;28;20628;-63
2021/07/07 06:23:03;;;;;;;7.60;7.00;;;20.60;98.40;;;;;;4995150;28;20182;-63
2021/07/07 06:25:29;;;;;;;4.80;4.37;;;20.70;99.70;;;;;;4996529;28;20667;-63
2021/07/07 06:27:54;;;;;;;4.20;3.80;;;20.80;99.40;;;;;;4999658;28;20458;-63
2021/07/07 06:30:25;;;;;;;5.17;4.80;;;20.80;98.20;;;;;;4998742;28;20176;-63
2021/07/07 06:32:52;;;;;;;5.50;5.00;;;20.70;98.20;;;;;;5000591;28;20170;-63
2021/07/07 06:35:18;;;;;;;6.40;5.40;;;20.80;98.60;;;;;;5014516;28;20454;-63
2021/07/07 06:37:45;;;;;;;4.57;4.17;;;20.70;98.40;;;;;;4999278;28;20485;-63
2021/07/07 06:40:12;;;;;;;5.17;4.37;;;20.80;98.20;;;;;;4994312;28;20473;-63
2021/07/07 06:42:38;;;;;;;30.70;24.27;;;20.90;98.40;;;;;;4995448;28;20462;-64
2021/07/07 06:45:07;;;;;;;71.10;58.33;;;21.00;98.10;;;;;;4998255;28;20426;-61
2021/07/07 06:47:33;;;;;;;13.47;10.80;;;21.10;98.20;;;;;;4995346;28;20414;-61
2021/07/07 06:49:59;;;;;;;17.00;13.13;;;21.10;97.40;;;;;;4995563;28;20427;-61
2021/07/07 06:52:26;;;;;;;7.17;6.47;;;21.10;97.30;;;;;;4995190;28;20427;-60
2021/07/07 06:54:52;;;;;;;7.03;5.10;;;21.20;98.30;;;;;;4995209;28;20426;-60
2021/07/07 06:57:17;;;;;;;7.60;3.90;;;21.20;98.90;;;;;;4994355;28;20479;-60
2021/07/07 06:59:43;;;;;;;5.80;5.17;;;21.20;98.30;;;;;;4995086;28;20184;-60
2021/07/07 07:02:09;;;;;;;4.17;3.80;;;21.10;97.80;;;;;;4994449;28;20194;-61
2021/07/07 07:04:35;;;;;;;4.50;3.90;;;20.80;97.60;;;;;;4995034;28;20167;-60
2021/07/07 07:07:01;;;;;;;4.10;3.83;;;20.50;97.60;;;;;;4994686;28;20198;-61
2021/07/07 07:09:27;;;;;;;6.53;5.43;;;20.50;98.60;;;;;;4993841;28;20226;-60
2021/07/07 07:11:53;;;;;;;4.23;3.83;;;20.60;99.00;;;;;;4977519;28;20172;-60
2021/07/07 07:14:19;;;;;;;4.03;3.70;;;20.70;99.00;;;;;;4993941;28;20954;-61
2021/07/07 07:16:45;;;;;;;5.80;4.33;;;20.70;99.20;;;;;;4994769;28;20539;-60
2021/07/07 07:19:14;;;;;;;5.63;5.20;;;20.80;98.80;;;;;;4994157;28;20175;-60
2021/07/07 07:21:40;;;;;;;4.83;4.33;;;20.80;98.90;;;;;;4994625;28;20417;-60
2021/07/07 07:24:06;;;;;;;5.60;3.97;;;20.90;99.30;;;;;;4993988;28;20419;-61
2021/07/07 07:26:32;;;;;;;4.53;4.30;;;20.70;98.10;;;;;;4994689;28;20425;-60
2021/07/07 07:28:59;;;;;;;4.33;4.00;;;20.70;98.40;;;;;;4993425;28;20466;-60
2021/07/07 07:31:25;;;;;;;4.17;3.87;;;20.80;98.60;;;;;;4993633;28;20430;-60
2021/07/07 07:33:51;;;;;;;4.60;4.20;;;20.80;98.80;;;;;;4994418;28;20418;-60
2021/07/07 07:36:18;;;;;;;4.27;3.97;;;20.90;98.70;;;;;;4993759;28;20459;-60
2021/07/07 07:38:47;;;;;;;5.13;4.07;;;20.90;98.10;;;;;;4994280;28;20911;-60
2021/07/07 07:41:12;;;;;;;5.53;5.10;;;20.90;98.60;;;;;;4993721;28;20430;-61
2021/07/07 07:43:38;;;;;;;5.40;4.97;;;21.00;98.50;;;;;;4994277;28;20577;-61
2021/07/07 07:46:04;;;;;;;4.67;4.40;;;21.10;98.70;;;;;;4993688;28;20175;-62
2021/07/07 07:48:31;;;;;;;4.57;4.20;;;21.10;97.90;;;;;;4994747;28;20502;-63
2021/07/07 07:50:57;;;;;;;6.33;5.00;;;21.10;97.70;;;;;;4994160;28;20888;-60
2021/07/07 07:53:23;;;;;;;5.03;4.70;;;21.20;97.60;;;;;;4993501;28;20451;-60
2021/07/07 07:55:49;;;;;;;5.03;4.50;;;21.30;97.60;;;;;;4993644;28;20230;-60
2021/07/07 07:58:18;;;;;;;5.00;4.60;;;21.30;97.80;;;;;;4993490;28;20878;-61
2021/07/07 08:00:45;;;;;;;4.80;4.50;;;21.30;97.40;;;;;;4993975;28;20482;-61
2021/07/07 08:03:11;;;;;;;4.97;4.50;;;21.40;97.00;;;;;;4993082;28;20772;-61
2021/07/07 08:05:37;;;;;;;4.20;3.80;;;21.50;97.00;;;;;;4993976;28;20415;-61
2021/07/07 08:08:03;;;;;;;7.57;7.00;;;21.60;96.70;;;;;;4993847;28;20418;-61
2021/07/07 08:10:29;;;;;;;4.87;4.23;;;21.80;96.70;;;;;;4993237;28;20199;-61
2021/07/07 08:12:56;;;;;;;6.10;3.63;;;22.00;95.00;;;;;;4993487;28;20460;-61
2021/07/07 08:15:23;;;;;;;6.60;6.17;;;22.10;95.80;;;;;;4992759;28;20841;-61
2021/07/07 08:17:49;;;;;;;5.90;4.10;;;22.20;95.60;;;;;;4993952;28;20461;-62
2021/07/07 08:20:16;;;;;;;5.63;4.00;;;22.20;95.50;;;;;;4992832;28;20409;-62
2021/07/07 08:22:42;;;;;;;6.70;6.10;;;22.30;95.20;;;;;;4993586;28;20693;-62
2021/07/07 08:25:10;;;;;;;7.53;7.10;;;22.40;95.70;;;;;;4993281;28;20414;-62
2021/07/07 08:27:37;;;;;;;4.50;2.87;;;22.30;95.00;;;;;;4993143;28;20411;-61
2021/07/07 08:30:05;;;;;;;6.30;3.90;;;22.40;94.40;;;;;;4993844;28;20477;-61
2021/07/07 08:32:31;;;;;;;9.67;5.87;;;22.60;94.50;;;;;;4993562;28;20396;-61
2021/07/07 08:34:56;;;;;;;4.07;3.30;;;22.60;93.80;;;;;;4993233;28;20748;-61
2021/07/07 08:37:22;;;;;;;4.00;3.70;;;22.60;93.70;;;;;;4992723;28;20230;-61
2021/07/07 08:39:52;;;;;;;7.97;7.30;;;22.70;93.90;;;;;;4993348;28;20179;-61
2021/07/07 08:42:17;;;;;;;4.33;4.13;;;22.80;93.70;;;;;;4992738;28;20694;-61
2021/07/07 08:44:43;;;;;;;5.00;3.40;;;23.00;93.80;;;;;;4993044;28;20407;-61
2021/07/07 08:47:09;;;;;;;5.97;3.83;;;23.10;93.50;;;;;;4975370;28;20180;-61
2021/07/07 08:49:35;;;;;;;5.83;5.53;;;23.20;93.80;;;;;;4993436;28;20421;-62
2021/07/07 08:52:01;;;;;;;5.30;4.90;;;23.30;93.80;;;;;;4993284;28;20943;-62
2021/07/07 08:54:29;;;;;;;6.43;4.53;;;23.40;93.20;;;;;;4992664;28;20882;-61
2021/07/07 08:56:55;;;;;;;4.93;4.20;;;23.50;92.10;;;;;;4992670;28;20502;-62
2021/07/07 08:59:21;;;;;;;5.30;4.40;;;23.70;92.20;;;;;;4992560;28;20462;-62
2021/07/07 09:02:02;;;;;;;4.73;4.40;;;23.80;91.20;;;;;;4993150;28;20586;-61
2021/07/07 09:04:29;;;;;;;5.83;3.80;;;23.70;90.30;;;;;;4992257;28;20175;-61
2021/07/07 09:07:00;;;;;;;4.20;4.00;;;23.80;91.20;;;;;;4992850;28;20825;-60
2021/07/07 09:09:39;;;;;;;7.60;5.90;;;23.80;89.70;;;;;;4992401;28;20415;-62
2021/07/07 09:12:20;;;;;;;3.43;2.50;;;23.80;88.80;;;;;;4993055;28;20462;-61
2021/07/07 09:15:14;;;;;;;6.93;6.53;;;23.60;88.80;;;;;;4992667;28;20399;-62
2021/07/07 09:17:45;;;;;;;5.40;5.10;;;23.60;90.20;;;;;;4990892;28;20793;-62
2021/07/07 09:20:19;;;;;;;3.20;2.90;;;23.70;88.70;;;;;;4992441;28;20407;-62
2021/07/07 09:22:47;;;;;;;6.60;6.20;;;23.80;89.70;;;;;;4993042;28;20808;-61
2021/07/07 09:25:14;;;;;;;5.80;5.40;;;23.90;90.00;;;;;;4992448;28;20894;-60
2021/07/07 09:27:40;;;;;;;3.37;2.80;;;24.10;90.70;;;;;;4991461;28;20415;-61
2021/07/07 09:30:10;;;;;;;7.00;6.40;;;24.40;90.20;;;;;;4992941;28;20838;-61
2021/07/07 09:32:47;;;;;;;5.73;5.33;;;24.60;90.20;;;;;;4992889;28;20419;-62
2021/07/07 09:35:15;;;;;;;3.50;3.00;;;24.90;86.80;;;;;;4991986;28;20395;-62
2021/07/07 09:37:52;;;;;;;6.87;6.63;;;24.90;82.00;;;;;;4992883;28;20434;-62
2021/07/07 09:40:18;;;;;;;5.43;4.50;;;25.00;82.30;;;;;;4992364;28;20407;-62
2021/07/07 09:42:46;;;;;;;4.03;3.50;;;24.90;81.00;;;;;;4992806;28;20478;-61
2021/07/07 09:45:15;;;;;;;6.17;5.77;;;24.90;80.60;;;;;;4992076;28;20442;-62
2021/07/07 09:47:41;;;;;;;5.23;4.93;;;24.90;81.90;;;;;;4992647;28;20423;-64
2021/07/07 09:50:09;;;;;;;5.83;5.33;;;24.70;81.30;;;;;;4992765;28;20909;-64
2021/07/07 09:52:35;;;;;;;3.40;3.00;;;24.70;81.50;;;;;;4995511;28;20415;-69
2021/07/07 09:55:06;;;;;;;4.67;4.30;;;24.50;81.00;;;;;;4996257;28;20414;-64
2021/07/07 09:57:32;;;;;;;4.07;3.73;;;24.40;84.70;;;;;;4995123;28;20514;-64
2021/07/07 09:59:58;;;;;;;5.03;4.30;;;24.40;83.80;;;;;;4978819;28;20894;-64
2021/07/07 10:02:25;;;;;;;4.60;3.80;;;24.30;84.60;;;;;;4995643;28;20750;-65
2021/07/07 10:04:52;;;;;;;8.03;4.43;;;24.20;82.10;;;;;;4996243;28;20950;-65
2021/07/07 10:07:17;;;;;;;3.63;3.43;;;23.90;84.60;;;;;;4995432;28;20411;-64
2021/07/07 10:09:47;;;;;;;6.07;5.67;;;24.00;84.70;;;;;;4996136;28;20890;-64
2021/07/07 10:12:13;;;;;;;4.70;4.40;;;24.10;84.40;;;;;;4995404;28;20623;-64
2021/07/07 10:14:40;;;;;;;6.00;3.27;;;24.10;82.00;;;;;;4995849;28;20502;-64
2021/07/07 10:17:06;;;;;;;5.50;5.20;;;24.20;84.00;;;;;;4995859;28;20802;-64
2021/07/07 10:19:32;;;;;;;4.10;3.87;;;24.20;83.40;;;;;;4995087;28;20769;-64
2021/07/07 10:21:58;;;;;;;5.27;4.97;;;24.30;82.90;;;;;;4996085;28;20176;-65
2021/07/07 10:24:27;;;;;;;26.23;23.83;;;24.50;85.10;;;;;;4994907;28;20537;-64
2021/07/07 10:26:56;;;;;;;19.97;17.93;;;24.70;82.80;;;;;;4995476;28;20852;-64
2021/07/07 10:29:23;;;;;;;24.57;21.97;;;24.80;81.90;;;;;;4995017;28;20403;-64
2021/07/07 10:32:00;;;;;;;34.53;31.23;;;24.90;80.90;;;;;;4995686;28;20418;-64
2021/07/07 10:34:28;;;;;;;17.77;16.00;;;24.80;80.30;;;;;;4994743;28;20760;-61
2021/07/07 10:36:59;;;;;;;5.00;4.70;;;24.50;77.20;;;;;;4995443;28;20474;-61
2021/07/07 10:39:26;;;;;;;3.73;3.40;;;24.50;77.20;;;;;;4977709;28;20736;-62
2021/07/07 10:42:04;;;;;;;3.93;3.63;;;24.50;79.70;;;;;;4995518;28;20407;-62
2021/07/07 10:44:35;;;;;;;3.97;3.63;;;24.60;77.90;;;;;;4994871;28;20395;-61
2021/07/07 10:47:12;;;;;;;3.90;3.53;;;24.90;80.60;;;;;;4995376;28;20407;-62
2021/07/07 10:49:46;;;;;;;4.00;3.40;;;24.70;79.70;;;;;;4994809;28;20494;-62
2021/07/07 10:52:18;;;;;;;3.40;3.10;;;24.80;76.40;;;;;;4995415;28;20435;-62
2021/07/07 10:54:55;;;;;;;4.13;3.27;;;24.80;74.00;;;;;;4995384;28;20465;-61
2021/07/07 10:57:24;;;;;;;3.40;3.10;;;24.80;71.70;;;;;;4987645;28;20488;-61
2021/07/07 10:59:54;;;;;;;3.57;3.27;;;24.60;73.50;;;;;;4995228;28;20427;-61
2021/07/07 11:02:27;;;;;;;4.17;3.00;;;24.50;74.30;;;;;;4993982;28;20458;-61
2021/07/07 11:04:54;;;;;;;3.90;3.50;;;24.40;73.00;;;;;;4995554;28;20403;-62
2021/07/07 11:07:34;;;;;;;4.37;3.47;;;24.30;75.80;;;;;;4994245;28;20403;-63
2021/07/07 11:10:11;;;;;;;5.50;3.60;;;24.10;75.60;;;;;;4995144;28;20473;-61
2021/07/07 11:12:40;;;;;;;4.10;2.90;;;23.90;75.90;;;;;;4994381;28;20418;-62
2021/07/07 11:15:14;;;;;;;5.10;4.67;;;23.90;78.00;;;;;;4994844;28;20441;-61
2021/07/07 11:17:48;;;;;;;4.03;3.63;;;23.90;78.20;;;;;;4994220;28;20426;-61
2021/07/07 11:20:22;;;;;;;3.50;3.23;;;24.20;80.00;;;;;;4995119;28;20473;-62
2021/07/07 11:22:59;;;;;;;5.20;4.80;;;24.40;81.70;;;;;;4994703;28;20426;-62
2021/07/07 11:25:26;;;;;;;5.37;4.87;;;24.80;79.50;;;;;;4994111;28;20439;-61
2021/07/07 11:27:53;;;;;;;5.10;4.60;;;25.10;77.70;;;;;;4994829;28;20415;-60
2021/07/07 11:30:20;;;;;;;3.20;2.90;;;25.20;78.60;;;;;;4994037;28;20419;-63
2021/07/07 11:32:48;;;;;;;3.30;3.10;;;25.50;73.30;;;;;;4994419;28;20415;-61
2021/07/07 11:35:16;;;;;;;5.03;4.00;;;25.40;70.70;;;;;;4994399;28;20841;-62
2021/07/07 11:37:43;;;;;;;5.00;4.40;;;25.40;73.20;;;;;;4993197;28;20435;-62
2021/07/07 11:40:14;;;;;;;4.57;3.93;;;25.30;71.70;;;;;;4993067;28;20514;-65
2021/07/07 11:42:59;;;;;;;6.47;3.67;;;24.80;72.80;;;;;;4993455;28;20415;-65
2021/07/07 11:45:31;;;;;;;3.93;3.63;;;24.50;75.50;;;;;;4993538;28;20465;-67
2021/07/07 11:48:11;;;;;;;5.93;4.20;;;24.50;75.10;;;;;;4974868;28;20879;-67
2021/07/07 11:50:42;;;;;;;4.00;3.60;;;24.40;75.20;;;;;;4974618;28;20853;-67
2021/07/07 11:53:09;;;;;;;3.80;3.50;;;24.20;74.80;;;;;;4987241;28;20439;-62
2021/07/07 11:55:54;;;;;;;3.70;3.40;;;23.90;76.30;;;;;;4992685;28;20934;-63
2021/07/07 11:58:28;;;;;;;5.10;3.60;;;23.90;78.60;;;;;;4993013;28;20438;-63
2021/07/07 12:00:56;;;;;;;4.23;3.90;;;24.20;78.20;;;;;;4994155;28;20399;-62
2021/07/07 12:03:23;;;;;;;3.67;3.40;;;24.50;77.80;;;;;;4993138;28;20430;-63
2021/07/07 12:06:01;;;;;;;3.90;3.60;;;24.70;77.00;;;;;;4993823;28;20411;-62
2021/07/07 12:08:35;;;;;;;4.63;4.00;;;24.80;78.10;;;;;;4993439;28;20879;-62
2021/07/07 12:11:08;;;;;;;4.10;3.67;;;25.00;78.10;;;;;;4993435;28;20554;-62
2021/07/07 12:13:36;;;;;;;4.80;3.60;;;25.20;79.20;;;;;;4992620;28;20422;-62
2021/07/07 12:16:20;;;;;;;3.90;3.60;;;25.30;81.00;;;;;;4993447;28;20443;-62
2021/07/07 12:18:52;;;;;;;3.57;3.37;;;25.30;77.00;;;;;;4993459;28;20427;-63
2021/07/07 12:21:23;;;;;;;4.67;3.53;;;25.40;78.50;;;;;;4993674;28;20419;-62
2021/07/07 12:23:53;;;;;;;6.23;4.03;;;25.60;78.90;;;;;;4993673;28;20438;-61
2021/07/07 12:26:20;;;;;;;5.17;4.67;;;25.60;78.80;;;;;;4992638;28;20781;-63
2021/07/07 12:28:50;;;;;;;3.93;3.57;;;25.70;78.10;;;;;;4992340;28;20785;-61
2021/07/07 12:31:17;;;;;;;3.80;3.60;;;25.70;77.00;;;;;;4992208;28;20494;-66
2021/07/07 12:33:46;;;;;;;4.40;3.87;;;25.70;76.80;;;;;;4991723;28;20426;-65
2021/07/07 12:36:13;;;;;;;4.70;4.30;;;25.80;77.30;;;;;;4992707;28;20458;-66
2021/07/07 12:38:46;;;;;;;5.13;3.93;;;25.90;79.50;;;;;;4992504;28;20816;-61
2021/07/07 12:41:13;;;;;;;3.60;3.20;;;26.10;80.00;;;;;;4992482;28;20764;-66
2021/07/07 12:43:58;;;;;;;2.97;2.70;;;26.30;75.70;;;;;;4991530;28;20426;-65
2021/07/07 12:46:24;;;;;;;4.80;3.20;;;26.30;73.60;;;;;;4992793;28;20407;-66